Time;durP1;ratioP1;P1;durP2;ratioP2;P2;SDS_P1;SDS_P2;PMS_P1;PMS_P2;Temp;Humidity;BMP_temperature;BMP_pressure;BME280_temperature;BME280_humidity;BME280_pressure;Samples;Min_cycle;Max_cycle;Signal;HPM_P1;HPM_P2
2022/02/09 00:05:12;;;;;;;2.60;1.23;;;24.80;64.00;;;;;;4113578;28;20073;-71
2022/02/09 00:10:24;;;;;;;4.00;1.10;;;24.80;64.30;;;;;;4098793;28;20330;-77
2022/02/09 00:12:55;;;;;;;3.17;1.10;;;24.80;63.80;;;;;;4112570;28;20035;-75
2022/02/09 00:15:38;;;;;;;4.40;1.20;;;24.80;63.60;;;;;;4113514;28;20101;-76
2022/02/09 00:18:12;;;;;;;2.00;0.98;;;24.90;63.60;;;;;;4117141;28;20148;-76
2022/02/09 00:23:30;;;;;;;1.45;1.00;;;24.90;63.50;;;;;;4118159;28;20383;-76
2022/02/09 00:36:24;;;;;;;1.98;1.13;;;25.00;63.30;;;;;;4117859;28;20145;-74
2022/02/09 00:41:35;;;;;;;2.38;1.10;;;25.10;63.30;;;;;;4118999;28;20050;-76
2022/02/09 00:44:25;;;;;;;3.38;0.95;;;25.10;63.20;;;;;;4109165;28;20157;-74
2022/02/09 01:40:51;;;;;;;0.85;0.60;;;25.80;61.80;;;;;;4113447;28;20074;-75
2022/02/09 01:51:12;;;;;;;0.93;0.52;;;25.90;61.80;;;;;;4116382;28;20089;-72
2022/02/09 01:56:15;;;;;;;0.63;0.50;;;26.00;61.60;;;;;;4118156;28;20074;-74
2022/02/09 01:58:38;;;;;;;1.30;0.80;;;26.00;61.10;;;;;;4117299;28;20046;-74
2022/02/09 02:01:00;;;;;;;1.05;0.70;;;26.10;60.90;;;;;;4116417;28;20073;-73
2022/02/09 02:03:23;;;;;;;0.63;0.63;;;26.00;60.60;;;;;;4102740;28;20090;-73
2022/02/09 02:05:46;;;;;;;3.20;0.80;;;26.10;60.50;;;;;;4101457;28;20452;-71
2022/02/09 02:08:10;;;;;;;0.70;0.60;;;26.10;60.20;;;;;;4116343;28;20042;-75
2022/02/09 02:10:37;;;;;;;1.17;0.57;;;26.10;60.20;;;;;;4112140;28;20042;-71
2022/02/09 02:13:22;;;;;;;0.73;0.60;;;26.10;60.20;;;;;;4111965;28;20042;-71
2022/02/09 02:16:50;;;;;;;1.95;0.50;;;26.20;60.00;;;;;;4100205;28;20049;-72
2022/02/09 02:18:36;;;;;;;1.90;0.60;;;26.20;59.90;;;;;;4113321;28;20055;-70
2022/02/09 02:26:40;;;;;;;0.55;0.40;;;26.20;59.70;;;;;;4108291;28;20049;-72
2022/02/09 03:13:21;;;;;;;0.52;0.30;;;27.00;59.40;;;;;;4118457;28;20566;-75
2022/02/09 03:16:27;;;;;;;0.20;0.20;;;27.00;59.30;;;;;;4116893;28;20049;-75
2022/02/09 03:19:05;;;;;;;0.30;0.30;;;27.10;59.40;;;;;;4117587;28;20145;-75
2022/02/09 03:21:50;;;;;;;0.20;0.20;;;27.20;59.50;;;;;;4116796;28;20093;-74
2022/02/09 03:24:31;;;;;;;0.20;0.20;;;27.20;59.40;;;;;;4117826;28;20045;-74
2022/02/09 03:43:39;;;;;;;0.10;0.10;;;27.60;59.20;;;;;;4097302;28;20038;-77
2022/02/09 03:46:23;;;;;;;0.30;0.17;;;27.70;59.30;;;;;;4113602;28;20061;-76
2022/02/09 03:54:21;;;;;;;0.65;0.25;;;27.80;59.00;;;;;;4113714;28;20520;-68
2022/02/09 03:59:13;;;;;;;34.90;2.65;;;27.90;59.00;;;;;;4113461;28;20121;-79
2022/02/09 04:01:39;;;;;;;13.57;1.55;;;28.00;58.40;;;;;;4115324;28;20038;-79
2022/02/09 04:04:03;;;;;;;13.43;1.65;;;28.00;58.80;;;;;;4115807;28;20046;-75
2022/02/09 04:06:27;;;;;;;11.05;1.48;;;28.10;58.90;;;;;;4114237;28;20637;-76
2022/02/09 04:08:56;;;;;;;13.40;1.20;;;28.10;58.30;;;;;;4114844;28;20124;-72
2022/02/09 04:11:26;;;;;;;5.40;0.88;;;28.10;58.90;;;;;;4112747;28;20420;-77
2022/02/09 04:14:00;;;;;;;10.15;1.25;;;28.20;58.80;;;;;;4112776;28;20534;-78
2022/02/09 04:19:13;;;;;;;12.82;1.20;;;28.30;58.90;;;;;;4114335;28;20484;-74
2022/02/09 04:38:03;;;;;;;1.30;0.38;;;28.60;58.60;;;;;;4114973;28;20038;-74
2022/02/09 04:45:56;;;;;;;3.58;0.52;;;28.90;57.80;;;;;;4114032;28;20051;-72
2022/02/09 04:58:27;;;;;;;1.52;0.57;;;29.20;58.30;;;;;;4110546;28;20038;-73
2022/02/09 05:00:58;;;;;;;0.60;0.38;;;29.30;58.40;;;;;;4109798;28;20113;-74
2022/02/09 05:25:13;;;;;;;0.65;0.50;;;30.10;57.00;;;;;;4113417;28;20050;-70
2022/02/09 05:27:49;;;;;;;1.25;0.40;;;30.10;56.90;;;;;;4113166;28;20039;-69
2022/02/09 05:30:11;;;;;;;4.72;0.57;;;30.30;56.80;;;;;;4113151;28;20347;-70
2022/02/09 05:32:34;;;;;;;5.22;0.35;;;30.30;56.70;;;;;;4114352;28;20140;-71
2022/02/09 05:34:56;;;;;;;2.15;0.50;;;30.40;56.60;;;;;;4115185;28;20129;-71
2022/02/09 05:37:19;;;;;;;4.35;0.55;;;30.40;56.30;;;;;;4111665;28;20120;-70
2022/02/09 05:39:41;;;;;;;5.32;0.70;;;30.60;56.40;;;;;;4115735;28;20042;-73
2022/02/09 05:42:08;;;;;;;3.75;0.73;;;30.60;56.40;;;;;;4100816;28;20043;-74
2022/02/09 05:44:30;;;;;;;0.85;0.35;;;30.70;56.40;;;;;;4114480;28;20422;-71
2022/02/09 05:47:52;;;;;;;2.83;0.68;;;30.70;56.40;;;;;;4114706;28;20117;-72
2022/02/09 05:49:47;;;;;;;2.88;0.70;;;30.80;56.40;;;;;;4116137;28;20049;-72
2022/02/09 05:52:28;;;;;;;0.98;0.30;;;30.80;56.20;;;;;;4112083;28;20035;-73
2022/02/09 05:55:17;;;;;;;1.02;0.47;;;30.80;56.00;;;;;;4111248;28;20157;-73
2022/02/09 05:57:46;;;;;;;0.47;0.30;;;30.90;55.90;;;;;;4111465;28;20042;-72
2022/02/09 06:00:10;;;;;;;0.57;0.50;;;30.90;55.70;;;;;;4094789;28;20058;-72
2022/02/09 06:02:32;;;;;;;0.90;0.30;;;31.00;55.70;;;;;;4106989;28;20575;-73
2022/02/09 06:04:56;;;;;;;0.68;0.50;;;31.00;55.60;;;;;;4112549;28;20036;-71
2022/02/09 06:07:20;;;;;;;1.05;0.30;;;31.00;55.40;;;;;;4112227;28;20030;-73
2022/02/09 06:09:43;;;;;;;0.30;0.30;;;31.10;55.40;;;;;;4096786;28;20062;-72
2022/02/09 06:19:46;;;;;;;0.93;0.65;;;31.20;53.10;;;;;;4115897;28;20097;-72
2022/02/09 06:22:08;;;;;;;1.38;0.80;;;31.20;52.30;;;;;;4113287;28;20057;-72
2022/02/09 06:24:31;;;;;;;2.15;0.50;;;31.10;51.40;;;;;;4116032;28;20022;-73
2022/02/09 06:26:54;;;;;;;0.88;0.47;;;31.10;51.20;;;;;;4115410;28;20396;-73
2022/02/09 06:29:17;;;;;;;2.85;0.75;;;31.10;51.50;;;;;;4099471;28;20440;-72
2022/02/09 06:31:42;;;;;;;0.67;0.53;;;31.20;51.70;;;;;;4114928;28;20057;-71
2022/02/09 06:34:06;;;;;;;0.77;0.40;;;31.20;51.70;;;;;;4114216;28;20034;-72
2022/02/09 06:36:28;;;;;;;;;;;31.20;51.10;;;;;;4099877;28;20085;-74
2022/02/09 06:38:51;;;;;;;1.25;0.75;;;31.20;51.70;;;;;;4101175;28;21106;-74
2022/02/09 06:41:13;;;;;;;1.67;0.75;;;31.10;51.10;;;;;;4114784;28;20047;-72
2022/02/09 06:43:36;;;;;;;1.30;0.93;;;31.20;50.80;;;;;;4115423;28;20047;-72
2022/02/09 06:45:58;;;;;;;1.33;0.80;;;31.10;51.70;;;;;;4115090;28;20093;-73
2022/02/09 06:48:21;;;;;;;1.63;1.00;;;31.10;51.50;;;;;;4116791;28;20300;-71
2022/02/09 06:50:49;;;;;;;3.47;1.50;;;31.00;51.10;;;;;;4115014;28;20042;-73
2022/02/09 06:55:49;;;;;;;4.82;1.85;;;31.00;50.60;;;;;;4115972;28;20046;-71
2022/02/09 06:58:18;;;;;;;4.68;1.75;;;31.00;50.90;;;;;;4101364;28;20070;-71
2022/02/09 07:00:41;;;;;;;4.20;1.95;;;31.00;51.20;;;;;;4114187;28;20039;-73
2022/02/09 07:03:03;;;;;;;5.40;2.60;;;31.00;50.80;;;;;;4111526;28;20053;-73
2022/02/09 07:05:26;;;;;;;6.53;1.90;;;31.00;50.60;;;;;;4110546;28;20042;-70
2022/02/09 07:07:48;;;;;;;4.13;2.20;;;31.00;51.00;;;;;;4108669;28;20046;-71
2022/02/09 07:10:14;;;;;;;4.15;2.33;;;30.90;50.40;;;;;;4110934;28;20037;-72
2022/02/09 07:12:38;;;;;;;4.43;2.08;;;30.90;50.60;;;;;;4108034;28;20169;-74
2022/02/09 07:15:01;;;;;;;5.93;2.20;;;30.90;50.30;;;;;;4111981;28;21151;-70
2022/02/09 07:17:24;;;;;;;5.97;2.05;;;30.90;50.40;;;;;;4112314;28;20038;-71
2022/02/09 07:19:57;;;;;;;3.33;1.60;;;30.90;50.50;;;;;;4097763;28;20046;-70
2022/02/09 07:22:24;;;;;;;3.20;2.10;;;30.90;49.60;;;;;;4109156;28;20105;-70
2022/02/09 07:24:47;;;;;;;3.40;2.05;;;30.60;49.40;;;;;;4111352;28;20112;-70
2022/02/09 07:27:39;;;;;;;3.60;1.60;;;30.30;48.00;;;;;;4110440;28;20408;-74
2022/02/09 07:29:54;;;;;;;3.28;1.80;;;29.90;47.50;;;;;;4112938;28;20042;-72
2022/02/09 07:32:17;;;;;;;3.55;2.00;;;29.40;47.70;;;;;;4110140;28;20634;-71
2022/02/09 07:34:39;;;;;;;2.47;1.70;;;29.00;47.50;;;;;;4110288;28;20058;-70
2022/02/09 07:37:02;;;;;;;4.93;1.80;;;28.70;47.60;;;;;;4111362;28;20084;-72
2022/02/09 07:39:24;;;;;;;2.83;1.88;;;28.40;47.90;;;;;;4097948;28;20146;-71
2022/02/09 07:41:49;;;;;;;2.70;1.85;;;28.00;48.10;;;;;;4111095;28;20069;-71
2022/02/09 07:54:05;;;;;;;2.10;1.33;;;26.90;49.30;;;;;;4118736;28;20824;-72
2022/02/09 07:56:37;;;;;;;2.22;1.50;;;26.70;49.40;;;;;;4086875;28;20113;-74
2022/02/09 07:58:59;;;;;;;2.22;1.48;;;26.40;49.50;;;;;;4096263;28;20066;-69
2022/02/09 08:01:22;;;;;;;2.13;1.30;;;26.30;49.60;;;;;;4114251;28;20599;-69
2022/02/09 08:03:45;;;;;;;1.95;1.33;;;26.10;49.80;;;;;;4118600;28;20125;-67
2022/02/09 08:06:11;;;;;;;3.00;1.63;;;26.00;50.20;;;;;;4116581;28;20050;-69
2022/02/09 08:08:35;;;;;;;2.50;1.50;;;25.80;50.30;;;;;;4117574;28;20034;-70
2022/02/09 08:11:09;;;;;;;3.15;1.83;;;25.70;50.50;;;;;;4117005;28;20108;-68
2022/02/09 08:25:04;;;;;;;2.63;1.58;;;25.00;51.30;;;;;;4111356;28;20111;-69
2022/02/09 08:27:18;;;;;;;2.70;1.80;;;24.90;51.70;;;;;;4112741;28;20038;-69
2022/02/09 08:29:58;;;;;;;3.70;1.63;;;24.70;51.90;;;;;;4116248;28;20356;-66
2022/02/09 08:34:52;;;;;;;3.47;1.85;;;24.50;52.20;;;;;;4112883;28;20078;-68
2022/02/09 08:37:14;;;;;;;5.57;1.83;;;24.40;52.10;;;;;;4114242;28;20094;-66
2022/02/09 08:39:39;;;;;;;3.10;1.90;;;24.30;52.30;;;;;;4113434;28;20059;-65
2022/02/09 08:42:03;;;;;;;5.13;1.67;;;24.20;52.50;;;;;;4107168;28;20050;-67
2022/02/09 08:44:26;;;;;;;2.58;1.20;;;24.10;52.60;;;;;;4112447;28;20038;-67
2022/02/09 08:46:48;;;;;;;2.30;1.47;;;24.00;52.90;;;;;;4099168;28;20069;-67
2022/02/09 08:49:11;;;;;;;2.38;1.38;;;24.00;54.10;;;;;;4108983;28;20040;-68
2022/02/09 08:51:34;;;;;;;3.85;1.40;;;24.10;53.80;;;;;;4108425;28;20035;-68
2022/02/09 08:53:57;;;;;;;2.83;1.50;;;24.30;54.00;;;;;;4113327;28;20042;-66
2022/02/09 08:56:19;;;;;;;2.17;1.50;;;24.40;54.70;;;;;;4112429;28;20046;-66
2022/02/09 08:58:43;;;;;;;2.20;1.38;;;24.40;53.70;;;;;;4110732;28;20116;-69
2022/02/09 09:01:11;;;;;;;2.83;1.77;;;24.20;53.00;;;;;;4101117;28;20728;-67
2022/02/09 09:03:45;;;;;;;2.83;1.60;;;24.00;52.70;;;;;;4109840;28;20885;-69
2022/02/09 09:06:10;;;;;;;2.40;1.30;;;23.90;54.10;;;;;;4097197;28;20535;-66
2022/02/09 09:11:48;;;;;;;0.98;0.80;;;24.20;54.40;;;;;;4114229;28;20153;-70
2022/02/09 10:02:11;;;;;;;3.20;0.98;;;26.50;56.20;;;;;;4109674;28;20061;-67
2022/02/09 10:32:39;;;;;;;1.67;0.73;;;27.40;59.10;;;;;;4110464;28;20496;-71
2022/02/09 10:35:13;;;;;;;2.35;1.00;;;27.40;59.10;;;;;;4108027;28;20063;-69
2022/02/09 10:37:35;;;;;;;1.58;1.05;;;27.50;59.10;;;;;;4092994;28;20122;-70
2022/02/09 10:40:02;;;;;;;2.35;0.75;;;27.50;59.00;;;;;;4108434;28;20077;-69
2022/02/09 10:42:37;;;;;;;1.73;0.88;;;27.60;59.10;;;;;;4111709;28;20042;-69
2022/02/09 10:45:07;;;;;;;1.50;0.93;;;27.70;58.90;;;;;;4112112;28;20046;-69
2022/02/09 10:47:34;;;;;;;2.67;0.93;;;27.70;59.40;;;;;;4110621;28;20152;-69
2022/02/09 10:50:17;;;;;;;2.65;0.80;;;27.80;58.60;;;;;;4111974;28;20129;-72
2022/02/09 10:52:46;;;;;;;3.30;0.75;;;27.80;58.40;;;;;;4112296;28;20488;-73
2022/02/09 10:55:31;;;;;;;1.90;0.82;;;27.90;58.40;;;;;;4098682;28;20725;-70
2022/02/09 10:57:54;;;;;;;1.70;0.60;;;27.90;58.20;;;;;;4111775;28;20046;-71
2022/02/09 11:00:17;;;;;;;2.10;0.70;;;28.00;58.20;;;;;;4097916;28;20054;-70
2022/02/09 11:02:39;;;;;;;2.93;0.70;;;28.00;58.60;;;;;;4111755;28;20061;-72
2022/02/09 11:05:08;;;;;;;3.70;0.55;;;28.10;58.10;;;;;;4111532;28;20844;-75
2022/02/09 11:07:30;;;;;;;1.85;0.57;;;28.10;57.90;;;;;;4113752;28;20049;-75
2022/02/09 11:09:53;;;;;;;1.45;0.60;;;28.10;58.30;;;;;;4112614;28;20826;-73
2022/02/09 11:12:16;;;;;;;1.17;0.70;;;28.20;57.70;;;;;;4113038;28;20056;-73
2022/02/09 11:14:42;;;;;;;2.47;0.97;;;28.20;57.60;;;;;;4111996;28;20521;-74
2022/02/09 11:17:05;;;;;;;0.80;0.50;;;28.20;57.50;;;;;;4112992;28;20039;-73
2022/02/09 11:19:44;;;;;;;1.15;0.40;;;28.20;57.40;;;;;;4110092;28;20153;-73
2022/02/09 11:22:11;;;;;;;0.85;0.60;;;28.30;57.40;;;;;;4112898;28;20037;-73
2022/02/09 11:24:42;;;;;;;2.05;0.60;;;28.30;57.30;;;;;;4114364;28;20505;-72
2022/02/09 11:27:17;;;;;;;1.42;0.70;;;28.40;57.30;;;;;;4114840;28;20529;-72
2022/02/09 11:29:53;;;;;;;1.08;0.68;;;28.40;57.20;;;;;;4099304;28;20078;-73
2022/02/09 11:32:36;;;;;;;0.88;0.55;;;28.40;57.20;;;;;;4112857;28;20047;-74
2022/02/09 11:35:18;;;;;;;1.10;0.70;;;28.40;57.00;;;;;;4114837;28;20050;-74
2022/02/09 11:37:50;;;;;;;2.15;0.65;;;28.50;57.10;;;;;;4113775;28;20469;-73
2022/02/09 11:41:04;;;;;;;1.60;0.70;;;28.50;57.50;;;;;;4114441;28;20039;-74
2022/02/09 11:49:11;;;;;;;1.60;0.70;;;28.60;57.00;;;;;;4114442;28;20095;-73
2022/02/09 11:52:10;;;;;;;0.60;0.60;;;28.60;57.00;;;;;;4113714;28;20042;-72
2022/02/09 12:00:33;;;;;;;0.63;0.60;;;28.70;56.90;;;;;;4117190;28;20098;-74
2022/02/09 12:14:01;;;;;;;3.05;0.88;;;28.70;56.40;;;;;;4111715;28;20138;-71
2022/02/09 12:17:13;;;;;;;2.78;0.90;;;28.70;56.40;;;;;;4111388;28;20600;-71
2022/02/09 12:19:43;;;;;;;2.97;0.68;;;28.70;56.40;;;;;;4110923;28;20046;-71
2022/02/09 12:22:12;;;;;;;1.67;0.95;;;28.60;56.40;;;;;;4111078;28;20129;-70
2022/02/09 12:24:36;;;;;;;1.55;0.68;;;28.70;56.50;;;;;;4112046;28;20041;-70
2022/02/09 12:27:06;;;;;;;5.88;1.00;;;28.70;56.60;;;;;;4112086;28;20719;-71
2022/02/09 12:29:32;;;;;;;1.52;0.80;;;28.60;56.50;;;;;;4110914;28;20492;-71
2022/02/09 12:31:54;;;;;;;1.40;0.70;;;28.60;56.60;;;;;;4110228;28;20031;-72
2022/02/09 12:34:24;;;;;;;4.13;1.25;;;28.60;56.70;;;;;;4110221;28;20085;-69
2022/02/09 12:36:47;;;;;;;1.60;0.70;;;28.50;56.60;;;;;;4111704;28;20120;-72
2022/02/09 12:39:12;;;;;;;1.30;0.75;;;28.50;56.60;;;;;;4112380;28;20081;-70
2022/02/09 12:41:34;;;;;;;3.58;0.93;;;28.50;56.60;;;;;;4099123;28;20039;-73
2022/02/09 12:44:07;;;;;;;3.92;0.80;;;28.60;56.70;;;;;;4097541;28;20089;-72
2022/02/09 12:46:41;;;;;;;4.65;0.90;;;28.50;56.70;;;;;;4111758;28;20038;-70
2022/02/09 12:49:14;;;;;;;4.78;1.13;;;28.50;56.70;;;;;;4110610;28;20050;-72
2022/02/09 12:51:38;;;;;;;3.40;0.80;;;28.50;56.70;;;;;;4110728;28;20051;-71
2022/02/09 12:54:01;;;;;;;4.65;0.80;;;28.50;56.60;;;;;;4096136;28;20050;-72
2022/02/09 12:56:38;;;;;;;4.13;1.00;;;28.50;56.70;;;;;;4112946;28;20089;-72
2022/02/09 12:59:15;;;;;;;1.48;0.80;;;28.50;56.70;;;;;;4110944;28;20125;-71
2022/02/09 13:01:47;;;;;;;2.20;0.80;;;28.50;56.70;;;;;;4110421;28;20031;-71
2022/02/09 13:04:11;;;;;;;2.60;0.70;;;28.50;56.80;;;;;;4110925;28;20172;-71
2022/02/09 13:06:33;;;;;;;;;;;28.50;56.80;;;;;;4110773;28;20411;-71
2022/02/09 13:08:55;;;;;;;4.50;0.90;;;28.40;56.80;;;;;;4111236;28;20000;-73
2022/02/09 13:11:30;;;;;;;4.75;0.70;;;28.40;56.80;;;;;;4111431;28;20183;-73
2022/02/09 13:14:02;;;;;;;0.90;0.55;;;28.40;57.00;;;;;;4111600;28;20053;-72
2022/02/09 13:19:38;;;;;;;4.88;1.00;;;28.40;57.10;;;;;;4111804;28;20173;-75
2022/02/09 14:03:05;;;;;;;2.40;0.80;;;28.20;57.50;;;;;;4112788;28;20035;-70
2022/02/09 14:13:28;;;;;;;4.20;0.93;;;28.10;57.50;;;;;;4115157;28;20126;-74
2022/02/09 14:31:31;;;;;;;1.80;0.93;;;28.00;57.40;;;;;;4114367;28;20045;-72
2022/02/09 14:55:47;;;;;;;2.00;1.08;;;27.80;57.80;;;;;;4094061;28;20053;-75
2022/02/09 14:58:12;;;;;;;1.70;1.00;;;27.80;57.90;;;;;;4116404;28;20038;-74
2022/02/09 15:00:40;;;;;;;1.10;0.90;;;27.80;57.90;;;;;;4114438;28;20042;-75
2022/02/09 15:08:25;;;;;;;1.38;0.98;;;27.80;58.00;;;;;;4113773;28;20042;-76
2022/02/09 15:11:01;;;;;;;0.90;0.73;;;27.80;58.10;;;;;;4114784;28;20799;-77
2022/02/09 15:16:06;;;;;;;1.83;1.10;;;27.80;58.10;;;;;;4114302;28;20050;-78
2022/02/09 15:21:23;;;;;;;2.40;0.90;;;27.70;58.10;;;;;;4114636;28;20051;-79
2022/02/09 15:23:47;;;;;;;2.67;1.00;;;27.70;58.20;;;;;;4100343;28;20039;-79
2022/02/09 15:26:09;;;;;;;1.08;0.75;;;27.70;58.20;;;;;;4112839;28;20071;-80
2022/02/09 15:28:35;;;;;;;1.60;1.37;;;27.70;58.30;;;;;;4111396;28;20049;-78
2022/02/09 15:33:33;;;;;;;1.80;0.95;;;27.70;58.30;;;;;;4114335;28;20049;-80
2022/02/09 15:35:58;;;;;;;2.92;0.82;;;27.60;58.30;;;;;;4112517;28;20165;-80
2022/02/09 15:38:25;;;;;;;1.73;0.95;;;27.60;58.30;;;;;;4112774;28;20100;-81
2022/02/09 15:41:13;;;;;;;1.58;0.80;;;27.60;58.40;;;;;;4115045;28;20046;-80
2022/02/09 15:44:01;;;;;;;0.85;0.68;;;27.60;58.40;;;;;;4116002;28;20046;-76
2022/02/09 15:57:41;;;;;;;1.23;0.98;;;27.60;58.10;;;;;;4116479;28;20059;-77
2022/02/09 16:05:38;;;;;;;1.35;0.80;;;27.50;58.60;;;;;;4113630;28;20086;-77
2022/02/09 16:05:43;;;;;;;1.10;0.77;;;27.50;58.60;;;;;;4114733;28;20055;-71
2022/02/09 16:23:42;;;;;;;1.25;0.80;;;27.50;58.70;;;;;;4119613;28;20038;-71
2022/02/09 16:34:28;;;;;;;0.95;0.85;;;27.40;58.80;;;;;;4113527;28;20759;-72
2022/02/09 16:44:41;;;;;;;0.75;0.70;;;27.40;58.80;;;;;;4114699;28;20054;-79
2022/02/09 16:47:38;;;;;;;1.60;0.73;;;27.30;58.70;;;;;;4114905;28;20050;-77
2022/02/09 16:50:03;;;;;;;1.15;0.98;;;27.30;58.80;;;;;;4111876;28;20038;-75
2022/02/09 16:52:34;;;;;;;0.93;0.60;;;27.30;58.80;;;;;;4112014;28;20162;-74
2022/02/09 16:55:24;;;;;;;0.85;0.63;;;27.30;58.80;;;;;;4098812;28;20075;-74
2022/02/09 17:21:11;;;;;;;1.13;0.80;;;27.20;58.80;;;;;;4112587;28;20104;-78
2022/02/09 17:23:33;;;;;;;0.95;0.50;;;27.20;58.80;;;;;;4115668;28;20062;-74
2022/02/09 17:25:55;;;;;;;0.70;0.70;;;27.20;58.80;;;;;;4116996;28;20188;-75
2022/02/09 17:28:18;;;;;;;2.33;0.88;;;27.10;58.80;;;;;;4116852;28;20034;-80
2022/02/09 17:33:32;;;;;;;0.70;0.70;;;27.10;58.80;;;;;;4116188;28;20039;-75
2022/02/09 17:36:11;;;;;;;4.05;1.10;;;27.10;58.80;;;;;;4112721;28;20518;-74
2022/02/09 17:38:42;;;;;;;2.83;0.95;;;27.10;58.90;;;;;;4111941;28;20429;-75
2022/02/09 17:57:09;;;;;;;1.38;0.68;;;27.00;58.90;;;;;;4113663;28;20050;-79
2022/02/09 17:59:33;;;;;;;2.67;1.02;;;27.00;58.90;;;;;;4113308;28;20077;-75
2022/02/09 18:01:55;;;;;;;;;;;27.00;59.10;;;;;;4116093;28;20123;-75
2022/02/09 18:04:21;;;;;;;3.47;1.00;;;27.00;59.10;;;;;;4114248;28;19913;-73
2022/02/09 18:06:52;;;;;;;0.68;0.60;;;27.00;59.10;;;;;;4113813;28;20062;-74
2022/02/09 18:09:22;;;;;;;0.82;0.60;;;27.00;59.10;;;;;;4101634;28;20213;-74
2022/02/09 18:14:32;;;;;;;4.57;1.10;;;27.00;59.10;;;;;;4116570;28;20085;-77
2022/02/09 18:43:17;;;;;;;1.75;1.20;;;26.80;59.10;;;;;;4115290;28;20113;-74
2022/02/09 18:45:45;;;;;;;1.85;0.88;;;26.80;59.10;;;;;;4115291;28;20034;-74
2022/02/09 18:48:40;;;;;;;1.83;0.90;;;26.80;58.50;;;;;;4113966;28;20173;-74
2022/02/09 19:04:10;;;;;;;1.42;0.90;;;26.70;58.90;;;;;;4115073;28;20122;-74
2022/02/09 19:20:05;;;;;;;3.13;1.02;;;26.60;59.00;;;;;;4113230;28;20421;-77
2022/02/09 19:49:44;;;;;;;2.80;0.93;;;26.40;58.90;;;;;;4114099;28;20062;-70
2022/02/09 19:56:50;;;;;;;1.58;0.80;;;26.30;58.90;;;;;;4112296;28;20137;-68
2022/02/09 19:59:15;;;;;;;2.08;1.10;;;26.30;59.00;;;;;;4114112;28;20030;-69
2022/02/09 20:01:38;;;;;;;2.92;1.02;;;26.30;58.90;;;;;;4113091;28;20050;-69
2022/02/09 20:04:01;;;;;;;2.53;1.13;;;26.30;59.00;;;;;;4112667;28;20086;-68
2022/02/09 20:06:24;;;;;;;1.50;0.85;;;26.30;59.10;;;;;;4113055;28;20049;-70
2022/02/09 20:08:46;;;;;;;1.40;0.98;;;26.30;59.10;;;;;;4109410;28;20129;-70
2022/02/09 20:11:15;;;;;;;2.42;1.25;;;26.20;59.20;;;;;;4111344;28;20050;-69
2022/02/09 20:13:38;;;;;;;2.13;1.25;;;26.20;58.60;;;;;;4109831;28;20129;-70
2022/02/09 20:16:00;;;;;;;19.20;1.85;;;26.20;58.80;;;;;;4095758;28;20098;-70
2022/02/09 20:18:23;;;;;;;3.10;1.55;;;26.20;58.60;;;;;;4111077;28;20046;-70
2022/02/09 20:20:45;;;;;;;5.43;2.08;;;26.20;58.50;;;;;;4110262;28;20033;-70
2022/02/09 20:23:10;;;;;;;4.25;2.10;;;26.10;58.40;;;;;;4094986;28;20097;-70
2022/02/09 20:25:32;;;;;;;5.22;2.20;;;26.10;58.40;;;;;;4112913;28;20035;-71
2022/02/09 20:27:56;;;;;;;4.30;1.88;;;26.10;58.50;;;;;;4109437;28;20465;-73
2022/02/09 20:30:22;;;;;;;16.75;2.38;;;26.10;58.90;;;;;;4114561;28;20037;-75
2022/02/09 20:32:53;;;;;;;5.95;1.92;;;26.10;58.90;;;;;;4116281;28;20087;-74
2022/02/09 20:35:17;;;;;;;3.67;1.80;;;26.10;58.90;;;;;;4119688;28;20760;-73
2022/02/09 20:37:45;;;;;;;3.08;1.90;;;26.10;58.70;;;;;;4120241;28;20030;-73
2022/02/09 20:40:34;;;;;;;4.28;2.30;;;26.10;58.60;;;;;;4120746;28;20051;-74
2022/02/09 20:42:59;;;;;;;3.00;2.08;;;26.10;58.50;;;;;;4117549;28;20047;-74
2022/02/09 20:45:46;;;;;;;5.53;2.15;;;26.10;58.40;;;;;;4118185;28;20104;-73
2022/02/09 20:48:14;;;;;;;4.57;2.40;;;26.10;58.40;;;;;;4116484;28;20042;-72
2022/02/09 20:50:37;;;;;;;3.08;2.13;;;26.10;58.50;;;;;;4121004;28;20043;-73
2022/02/09 20:53:00;;;;;;;5.30;2.30;;;26.10;58.50;;;;;;4105159;28;20121;-71
2022/02/09 20:55:23;;;;;;;2.88;2.22;;;26.10;58.40;;;;;;4121957;28;20047;-72
2022/02/09 20:57:46;;;;;;;4.03;2.20;;;26.10;58.40;;;;;;4121848;28;20118;-71
2022/02/09 21:00:16;;;;;;;5.68;2.28;;;26.00;58.50;;;;;;4118749;28;20053;-72
2022/02/09 21:02:50;;;;;;;4.85;2.50;;;26.10;58.50;;;;;;4118322;28;20452;-72
2022/02/09 21:08:08;;;;;;;2.67;1.95;;;26.00;58.40;;;;;;4115389;28;20041;-71
2022/02/09 21:10:46;;;;;;;3.58;1.70;;;26.00;58.40;;;;;;4116757;28;20046;-72
2022/02/09 21:16:16;;;;;;;2.78;1.95;;;26.00;58.40;;;;;;4087906;28;20125;-71
2022/02/09 21:21:38;;;;;;;4.22;2.20;;;26.00;58.30;;;;;;4114434;28;20073;-72
2022/02/09 21:30:17;;;;;;;4.07;1.90;;;26.00;58.20;;;;;;4115339;28;20038;-71
2022/02/09 21:44:58;;;;;;;4.10;1.77;;;25.90;58.10;;;;;;4115235;28;20089;-73
2022/02/09 21:57:56;;;;;;;3.05;1.90;;;25.90;58.10;;;;;;4111222;28;20047;-71
2022/02/09 22:50:24;;;;;;;2.47;1.23;;;26.00;58.10;;;;;;4107195;28;20104;-74
2022/02/09 22:55:45;;;;;;;1.85;1.00;;;26.00;58.20;;;;;;4084885;28;20141;-74
2022/02/09 22:58:10;;;;;;;3.33;1.08;;;26.10;58.40;;;;;;4108940;28;20101;-73
2022/02/09 23:01:11;;;;;;;3.33;1.27;;;26.10;58.40;;;;;;4108903;28;20822;-74
2022/02/09 23:06:33;;;;;;;4.53;1.40;;;26.20;58.50;;;;;;4107217;28;20479;-72
2022/02/09 23:57:07;;;;;;;1.85;1.45;;;26.60;57.20;;;;;;4109414;28;20054;-72
